Time;durP1;ratioP1;P1;durP2;ratioP2;P2;SDS_P1;SDS_P2;PMS_P1;PMS_P2;Temp;Humidity;BMP_temperature;BMP_pressure;BME280_temperature;BME280_humidity;BME280_pressure;Samples;Min_cycle;Max_cycle;Signal;HPM_P1;HPM_P2
2023/11/03 00:00:11;;;;;;;3.80;1.87;;;8.30;81.80;;;;;;4956709;28;20198;-69
2023/11/03 00:02:38;;;;;;;4.20;1.70;;;8.20;82.20;;;;;;4968035;28;20476;-69
2023/11/03 00:05:08;;;;;;;3.33;1.50;;;8.10;82.40;;;;;;4970291;28;20455;-70
2023/11/03 00:07:35;;;;;;;2.97;1.40;;;8.00;82.80;;;;;;4957096;28;20461;-71
2023/11/03 00:10:01;;;;;;;2.83;1.40;;;8.00;83.10;;;;;;4957021;28;20990;-69
2023/11/03 00:12:27;;;;;;;4.93;1.60;;;7.90;83.10;;;;;;4956156;28;20454;-69
2023/11/03 00:14:52;;;;;;;3.60;1.50;;;7.90;83.40;;;;;;4957503;28;21249;-70
2023/11/03 00:17:18;;;;;;;4.03;1.50;;;7.80;83.60;;;;;;4956469;28;20231;-70
2023/11/03 00:19:46;;;;;;;2.80;1.20;;;7.80;83.70;;;;;;4956226;28;20668;-71
2023/11/03 00:22:12;;;;;;;2.70;1.60;;;7.70;83.60;;;;;;4956162;28;20219;-69
2023/11/03 00:24:38;;;;;;;2.80;1.27;;;7.60;83.80;;;;;;4955930;28;20513;-70
2023/11/03 00:27:04;;;;;;;2.70;1.40;;;7.50;84.00;;;;;;4956635;28;20482;-71
2023/11/03 00:29:30;;;;;;;5.17;1.40;;;7.50;84.30;;;;;;4956338;28;20455;-71
2023/11/03 00:31:56;;;;;;;5.03;2.17;;;7.60;84.10;;;;;;4955495;28;20176;-69
2023/11/03 00:34:22;;;;;;;4.50;1.83;;;7.60;84.30;;;;;;4962629;28;20513;-71
2023/11/03 00:36:48;;;;;;;4.80;2.60;;;7.50;84.10;;;;;;4976236;28;20270;-71
2023/11/03 00:39:18;;;;;;;5.20;1.70;;;7.50;84.10;;;;;;4975593;28;20572;-69
2023/11/03 00:41:48;;;;;;;2.50;1.10;;;7.50;84.10;;;;;;4974644;28;20608;-71
2023/11/03 00:44:15;;;;;;;3.53;1.53;;;7.50;84.30;;;;;;4956103;28;20440;-71
2023/11/03 00:46:42;;;;;;;4.50;1.50;;;7.50;84.10;;;;;;4970604;28;20780;-71
2023/11/03 00:49:09;;;;;;;8.13;1.40;;;7.50;83.80;;;;;;4955968;28;20427;-69
2023/11/03 00:51:35;;;;;;;4.07;1.70;;;7.40;83.80;;;;;;4955153;28;20487;-70
2023/11/03 00:54:03;;;;;;;4.60;2.30;;;7.30;83.80;;;;;;4955304;28;20463;-70
2023/11/03 00:56:29;;;;;;;6.90;2.10;;;7.30;84.00;;;;;;4955822;28;20486;-70
2023/11/03 00:58:55;;;;;;;4.33;1.47;;;7.30;84.30;;;;;;4955855;28;20792;-70
2023/11/03 01:01:21;;;;;;;8.60;1.83;;;7.30;84.30;;;;;;4953908;28;20427;-71
2023/11/03 01:03:47;;;;;;;4.03;1.50;;;7.20;84.10;;;;;;4964739;28;20451;-71
2023/11/03 01:06:13;;;;;;;9.00;1.50;;;7.20;84.30;;;;;;4972250;28;20199;-70
2023/11/03 01:08:39;;;;;;;2.47;1.30;;;7.20;84.30;;;;;;4955537;28;20431;-70
2023/11/03 01:11:09;;;;;;;11.43;2.10;;;7.10;84.30;;;;;;4967939;28;20742;-70
2023/11/03 01:13:38;;;;;;;4.70;1.20;;;7.10;84.40;;;;;;4954678;28;20208;-69
2023/11/03 01:16:08;;;;;;;3.70;1.37;;;7.10;84.60;;;;;;4955150;28;21005;-69
2023/11/03 01:18:35;;;;;;;3.97;1.37;;;7.00;84.90;;;;;;4955475;28;20424;-70
2023/11/03 01:21:08;;;;;;;5.87;1.50;;;7.00;85.00;;;;;;4954638;28;20890;-70
2023/11/03 01:23:35;;;;;;;1.97;1.40;;;6.90;85.00;;;;;;4954380;28;20455;-70
2023/11/03 01:26:03;;;;;;;2.70;1.60;;;6.90;85.00;;;;;;4955337;28;20483;-71
2023/11/03 01:28:30;;;;;;;4.37;2.00;;;7.00;85.00;;;;;;4955319;28;20998;-69
2023/11/03 01:30:56;;;;;;;6.30;2.00;;;7.00;84.70;;;;;;4954517;28;20474;-71
2023/11/03 01:33:22;;;;;;;6.97;1.50;;;7.00;84.60;;;;;;4954674;28;20810;-68
2023/11/03 01:35:48;;;;;;;4.27;1.40;;;7.00;84.30;;;;;;4973659;28;20902;-69
2023/11/03 01:38:14;;;;;;;4.60;1.70;;;7.10;83.80;;;;;;4974637;28;20447;-71
2023/11/03 01:40:40;;;;;;;5.23;1.90;;;7.10;83.70;;;;;;4973746;28;20799;-71
2023/11/03 01:43:05;;;;;;;4.60;1.33;;;7.20;83.60;;;;;;4963673;28;20196;-69
2023/11/03 01:45:31;;;;;;;6.20;1.53;;;7.20;83.10;;;;;;4958530;28;20423;-70
2023/11/03 01:47:57;;;;;;;3.53;1.60;;;7.40;83.00;;;;;;4957950;28;20196;-68
2023/11/03 01:50:23;;;;;;;5.90;2.10;;;7.40;82.40;;;;;;4957575;28;20248;-70
2023/11/03 01:52:49;;;;;;;4.30;1.40;;;7.40;82.40;;;;;;4955690;28;20275;-70
2023/11/03 01:55:15;;;;;;;5.10;1.50;;;7.50;82.50;;;;;;4954393;28;20499;-70
2023/11/03 01:57:41;;;;;;;6.07;1.30;;;7.50;82.10;;;;;;4954724;28;20427;-70
2023/11/03 02:00:07;;;;;;;3.40;1.63;;;7.50;82.20;;;;;;4954333;28;20773;-68
2023/11/03 02:02:34;;;;;;;6.00;1.70;;;7.50;82.20;;;;;;4953967;28;20435;-70
2023/11/03 02:05:01;;;;;;;7.40;2.03;;;7.40;82.10;;;;;;4967277;28;20444;-71
2023/11/03 02:07:27;;;;;;;7.33;1.80;;;7.40;82.40;;;;;;4954302;28;20431;-69
2023/11/03 02:09:53;;;;;;;4.97;1.47;;;7.40;82.40;;;;;;4954398;28;20480;-71
2023/11/03 02:12:19;;;;;;;6.77;2.00;;;7.40;82.40;;;;;;4954152;28;20275;-70
2023/11/03 02:14:45;;;;;;;5.23;2.00;;;7.30;82.20;;;;;;4955574;28;20506;-70
2023/11/03 02:17:10;;;;;;;7.20;1.87;;;7.30;82.40;;;;;;4954076;28;20947;-69
2023/11/03 02:19:37;;;;;;;5.73;1.60;;;7.20;82.70;;;;;;4955747;28;20358;-70
2023/11/03 02:22:02;;;;;;;3.77;1.47;;;7.10;82.80;;;;;;4956840;28;20215;-69
2023/11/03 02:24:28;;;;;;;6.20;1.97;;;7.10;83.00;;;;;;4955755;28;20828;-70
2023/11/03 02:26:54;;;;;;;3.33;1.43;;;7.10;83.00;;;;;;4957268;28;20239;-70
2023/11/03 02:29:20;;;;;;;4.60;1.37;;;7.10;82.80;;;;;;4954462;28;20652;-69
2023/11/03 02:31:46;;;;;;;6.90;1.60;;;7.10;82.80;;;;;;4953236;28;20228;-70
2023/11/03 02:34:11;;;;;;;8.17;2.20;;;7.30;82.40;;;;;;4958596;28;20554;-70
2023/11/03 02:36:37;;;;;;;3.77;1.60;;;7.30;82.20;;;;;;4973003;28;20214;-70
2023/11/03 02:39:02;;;;;;;3.30;1.47;;;7.30;82.20;;;;;;4972838;28;20664;-69
2023/11/03 02:41:28;;;;;;;4.73;1.70;;;7.30;82.20;;;;;;4972871;28;20187;-70
2023/11/03 02:43:54;;;;;;;2.60;1.40;;;7.30;82.10;;;;;;4954379;28;20204;-69
2023/11/03 02:46:19;;;;;;;4.57;1.40;;;7.30;82.20;;;;;;4954138;28;20199;-69
2023/11/03 02:48:45;;;;;;;4.13;1.20;;;7.20;82.20;;;;;;4953877;28;20199;-70
2023/11/03 02:51:11;;;;;;;4.13;1.40;;;7.20;82.20;;;;;;4953324;28;20223;-69
2023/11/03 02:53:37;;;;;;;2.03;1.30;;;7.20;82.40;;;;;;4953089;28;20227;-70
2023/11/03 02:56:03;;;;;;;8.53;1.53;;;7.30;82.20;;;;;;4954048;28;20188;-71
2023/11/03 02:58:37;;;;;;;2.83;1.50;;;7.40;82.20;;;;;;4954120;28;20195;-70
2023/11/03 03:01:05;;;;;;;7.30;1.63;;;7.40;82.10;;;;;;4953406;28;20435;-70
2023/11/03 03:03:31;;;;;;;2.00;1.50;;;7.30;82.20;;;;;;4953825;28;20975;-68
2023/11/03 03:05:56;;;;;;;5.03;1.60;;;7.20;82.40;;;;;;4954020;28;20439;-69
2023/11/03 03:08:22;;;;;;;4.60;1.80;;;7.20;82.50;;;;;;4954469;28;20652;-69
2023/11/03 03:10:48;;;;;;;6.67;2.00;;;7.20;82.70;;;;;;4954717;28;20240;-69
2023/11/03 03:13:13;;;;;;;2.13;1.30;;;7.20;82.80;;;;;;4955004;28;20211;-71
2023/11/03 03:15:39;;;;;;;6.23;1.70;;;7.20;83.00;;;;;;4953663;28;20652;-71
2023/11/03 03:18:04;;;;;;;3.87;1.60;;;7.20;83.00;;;;;;4953587;28;20531;-70
2023/11/03 03:20:30;;;;;;;6.23;1.40;;;7.20;83.00;;;;;;4952819;28;20258;-69
2023/11/03 03:22:56;;;;;;;3.97;1.50;;;7.10;83.00;;;;;;4952470;28;20683;-69
2023/11/03 03:25:21;;;;;;;5.23;1.43;;;7.10;83.00;;;;;;4953186;28;20207;-69
2023/11/03 03:27:47;;;;;;;7.90;2.20;;;7.10;83.30;;;;;;4953053;28;20649;-68
2023/11/03 03:30:13;;;;;;;3.10;1.30;;;7.00;83.60;;;;;;4952813;28;20247;-69
2023/11/03 03:32:38;;;;;;;4.60;1.40;;;7.00;83.60;;;;;;4952733;28;20184;-69
2023/11/03 03:35:04;;;;;;;5.43;1.73;;;7.00;83.70;;;;;;4966050;28;20474;-68
2023/11/03 03:37:30;;;;;;;3.67;1.37;;;7.10;83.40;;;;;;4972707;28;20724;-68
2023/11/03 03:39:56;;;;;;;2.73;1.37;;;7.10;83.30;;;;;;4972403;28;20465;-68
2023/11/03 03:42:24;;;;;;;10.20;1.90;;;7.10;83.30;;;;;;4972938;28;20465;-69
2023/11/03 03:44:49;;;;;;;4.50;1.50;;;7.10;83.30;;;;;;4973047;28;20462;-70
2023/11/03 03:47:15;;;;;;;3.83;1.60;;;7.10;83.40;;;;;;4974026;28;20466;-70
2023/11/03 03:49:40;;;;;;;4.30;1.60;;;7.10;83.30;;;;;;4974239;28;20286;-70
2023/11/03 03:52:07;;;;;;;4.67;1.40;;;7.10;83.30;;;;;;4974881;28;20198;-69
2023/11/03 03:54:33;;;;;;;2.70;1.20;;;7.10;83.10;;;;;;4974299;28;20219;-69
2023/11/03 03:56:59;;;;;;;2.20;1.30;;;7.20;83.10;;;;;;4972456;28;20434;-67
2023/11/03 03:59:25;;;;;;;3.97;1.83;;;7.20;83.00;;;;;;4972030;28;20472;-70
2023/11/03 04:01:51;;;;;;;3.90;2.07;;;7.10;83.00;;;;;;4971822;28;20652;-70
2023/11/03 04:04:16;;;;;;;3.73;1.40;;;7.10;83.10;;;;;;4971222;28;20249;-68
2023/11/03 04:06:47;;;;;;;4.13;1.57;;;7.10;83.40;;;;;;4971921;28;20195;-69
2023/11/03 04:09:13;;;;;;;4.80;2.13;;;7.20;83.40;;;;;;4973298;28;20187;-73
2023/11/03 04:11:39;;;;;;;9.50;2.83;;;7.20;83.10;;;;;;4965308;28;20529;-70
2023/11/03 04:14:04;;;;;;;9.20;2.40;;;7.20;83.00;;;;;;4954522;28;20467;-70
2023/11/03 04:16:34;;;;;;;5.53;1.70;;;7.40;82.70;;;;;;4955028;28;20188;-70
2023/11/03 04:19:00;;;;;;;8.73;2.13;;;7.60;82.10;;;;;;4952943;28;20665;-69
2023/11/03 04:21:26;;;;;;;4.10;1.77;;;7.70;81.50;;;;;;4952369;28;20462;-69
2023/11/03 04:23:51;;;;;;;4.10;1.33;;;7.70;81.20;;;;;;4952044;28;20452;-68
2023/11/03 04:26:17;;;;;;;2.77;1.30;;;7.60;81.40;;;;;;4952821;28;20187;-70
2023/11/03 04:28:43;;;;;;;3.60;1.60;;;7.60;81.80;;;;;;4953242;28;20619;-69
2023/11/03 04:31:08;;;;;;;4.70;1.33;;;7.60;81.80;;;;;;4952128;28;20212;-70
2023/11/03 04:33:34;;;;;;;3.10;1.40;;;7.60;81.90;;;;;;4952780;28;20467;-71
2023/11/03 04:36:00;;;;;;;4.37;1.30;;;7.60;82.10;;;;;;4973516;28;20197;-68
2023/11/03 04:38:25;;;;;;;5.47;2.20;;;7.50;82.10;;;;;;4975350;28;20187;-68
2023/11/03 04:40:51;;;;;;;2.30;1.53;;;7.50;82.40;;;;;;4975111;28;20752;-70
2023/11/03 04:43:17;;;;;;;3.90;1.67;;;7.50;82.40;;;;;;4974959;28;20214;-70
2023/11/03 04:45:44;;;;;;;2.90;1.50;;;7.50;82.40;;;;;;4968198;28;20570;-69
2023/11/03 04:48:10;;;;;;;7.47;2.13;;;7.40;82.40;;;;;;4955734;28;20204;-69
2023/11/03 04:50:35;;;;;;;3.57;1.77;;;7.40;82.70;;;;;;4955477;28;20478;-69
2023/11/03 04:53:01;;;;;;;6.00;1.63;;;7.40;82.80;;;;;;4955306;28;20191;-68
2023/11/03 04:55:27;;;;;;;4.53;1.57;;;7.40;82.80;;;;;;4956037;28;20179;-69
2023/11/03 04:57:52;;;;;;;2.93;1.87;;;7.40;82.80;;;;;;4956128;28;20732;-68
2023/11/03 05:00:18;;;;;;;5.70;1.90;;;7.40;82.80;;;;;;4955801;28;20198;-69
2023/11/03 05:02:44;;;;;;;2.50;1.67;;;7.40;82.80;;;;;;4955081;28;20192;-70
2023/11/03 05:05:10;;;;;;;6.40;1.93;;;7.40;82.80;;;;;;4955535;28;20452;-70
2023/11/03 05:07:39;;;;;;;4.57;1.80;;;7.40;82.80;;;;;;4955647;28;20434;-71
2023/11/03 05:10:05;;;;;;;5.50;2.40;;;7.40;83.10;;;;;;4954963;28;20303;-69
2023/11/03 05:12:31;;;;;;;4.03;1.63;;;7.40;83.00;;;;;;4954894;28;20482;-69
2023/11/03 05:14:57;;;;;;;5.83;1.97;;;7.40;83.00;;;;;;4955246;28;20447;-69
2023/11/03 05:17:23;;;;;;;4.50;1.57;;;7.40;83.10;;;;;;4955234;28;20559;-69
2023/11/03 05:19:50;;;;;;;7.90;1.67;;;7.40;83.10;;;;;;4955152;28;20821;-69
2023/11/03 05:22:19;;;;;;;5.30;1.63;;;7.50;82.80;;;;;;4955224;28;20603;-68
2023/11/03 05:24:45;;;;;;;4.43;1.63;;;7.50;82.70;;;;;;4954809;28;20500;-69
2023/11/03 05:27:13;;;;;;;3.93;2.00;;;7.50;82.70;;;;;;4955643;28;20423;-69
2023/11/03 05:29:39;;;;;;;5.50;2.97;;;7.50;82.70;;;;;;4956973;28;20423;-68
2023/11/03 05:32:05;;;;;;;4.80;1.90;;;7.40;82.80;;;;;;4956842;28;20427;-70
2023/11/03 05:34:31;;;;;;;2.30;1.70;;;7.50;83.00;;;;;;4965964;28;20812;-70
2023/11/03 05:36:58;;;;;;;4.37;1.90;;;7.50;82.70;;;;;;4980079;28;20511;-70
2023/11/03 05:39:23;;;;;;;6.30;1.90;;;7.50;82.70;;;;;;4980329;28;20187;-69
2023/11/03 05:41:49;;;;;;;3.47;1.23;;;7.70;82.20;;;;;;4976712;28;20533;-70
2023/11/03 05:44:15;;;;;;;3.10;1.63;;;7.70;80.90;;;;;;4957580;28;20248;-71
2023/11/03 05:46:40;;;;;;;4.63;1.60;;;7.80;80.80;;;;;;4956476;28;20561;-71
2023/11/03 05:49:06;;;;;;;3.73;1.30;;;8.00;80.50;;;;;;4957215;28;20424;-68
2023/11/03 05:51:32;;;;;;;2.17;1.30;;;8.10;79.60;;;;;;4957268;28;20239;-68
2023/11/03 05:53:58;;;;;;;6.67;1.50;;;8.10;79.30;;;;;;4956429;28;20292;-70
2023/11/03 05:56:23;;;;;;;2.73;1.20;;;8.10;79.20;;;;;;4956163;28;20207;-70
2023/11/03 05:58:50;;;;;;;3.17;1.40;;;8.10;78.90;;;;;;4955238;28;20184;-70
2023/11/03 06:01:18;;;;;;;3.90;1.30;;;8.10;79.00;;;;;;4954013;28;20195;-70
2023/11/03 06:03:43;;;;;;;3.00;1.23;;;8.10;78.90;;;;;;4954052;28;20530;-70
2023/11/03 06:06:09;;;;;;;7.87;1.73;;;8.10;78.60;;;;;;4954495;28;20923;-68
2023/11/03 06:08:35;;;;;;;5.67;1.47;;;8.10;78.60;;;;;;4954687;28;20243;-69
2023/11/03 06:11:00;;;;;;;5.10;1.53;;;8.10;78.60;;;;;;4954370;28;20620;-69
2023/11/03 06:13:26;;;;;;;7.70;1.67;;;8.20;78.70;;;;;;4953901;28;20348;-69
2023/11/03 06:15:51;;;;;;;4.67;1.93;;;8.20;79.00;;;;;;4954275;28;20607;-69
2023/11/03 06:18:17;;;;;;;6.67;1.83;;;8.20;79.30;;;;;;4954464;28;20180;-69
2023/11/03 06:20:43;;;;;;;2.60;1.50;;;8.10;79.60;;;;;;4954265;28;20302;-69
2023/11/03 06:23:08;;;;;;;4.63;1.73;;;8.10;80.00;;;;;;4953738;28;20219;-70
2023/11/03 06:25:34;;;;;;;3.50;1.50;;;8.00;80.00;;;;;;4954261;28;20232;-71
2023/11/03 06:27:59;;;;;;;5.57;3.30;;;7.80;80.50;;;;;;4954610;28;20199;-70
2023/11/03 06:30:25;;;;;;;5.33;2.00;;;7.70;81.10;;;;;;4966876;28;20571;-71
2023/11/03 06:32:52;;;;;;;3.90;1.50;;;7.70;81.50;;;;;;4966759;28;20252;-68
2023/11/03 06:35:17;;;;;;;4.90;1.50;;;7.70;81.70;;;;;;4970017;28;20190;-70
2023/11/03 06:37:43;;;;;;;5.30;2.20;;;7.60;81.70;;;;;;4974949;28;20430;-70
2023/11/03 06:40:10;;;;;;;2.60;1.30;;;7.70;81.80;;;;;;4973965;28;20187;-71
2023/11/03 06:42:39;;;;;;;5.80;1.97;;;7.70;81.90;;;;;;4967107;28;20207;-71
2023/11/03 06:45:09;;;;;;;8.23;2.20;;;7.70;81.90;;;;;;4955077;28;20477;-69
2023/11/03 06:47:35;;;;;;;2.37;1.77;;;7.70;82.10;;;;;;4954747;28;20443;-71
2023/11/03 06:50:01;;;;;;;5.90;1.93;;;7.70;82.20;;;;;;4953753;28;20585;-68
2023/11/03 06:52:27;;;;;;;6.60;1.40;;;7.70;82.10;;;;;;4955030;28;20928;-71
2023/11/03 06:54:52;;;;;;;6.40;1.50;;;7.70;82.10;;;;;;4955693;28;20462;-71
2023/11/03 06:57:18;;;;;;;4.23;2.23;;;7.70;81.70;;;;;;4956444;28;20191;-70
2023/11/03 06:59:43;;;;;;;9.30;1.77;;;7.80;81.50;;;;;;4955799;28;20196;-70
2023/11/03 07:02:11;;;;;;;5.07;1.70;;;7.80;81.50;;;;;;4955784;28;20199;-69
2023/11/03 07:04:36;;;;;;;8.60;2.20;;;7.90;80.90;;;;;;4956128;28;20223;-71
2023/11/03 07:07:04;;;;;;;6.37;1.90;;;7.90;80.90;;;;;;4956450;28;20428;-72
2023/11/03 07:09:30;;;;;;;2.57;1.57;;;7.90;80.90;;;;;;4957260;28;20194;-71
2023/11/03 07:11:56;;;;;;;3.80;1.53;;;7.90;79.70;;;;;;4964984;28;20475;-71
2023/11/03 07:14:23;;;;;;;5.20;2.10;;;8.00;80.20;;;;;;4955732;28;20510;-70
2023/11/03 07:16:52;;;;;;;4.00;1.60;;;8.00;80.20;;;;;;4956341;28;20226;-71
2023/11/03 07:19:18;;;;;;;5.83;1.83;;;8.10;80.50;;;;;;4955504;28;20514;-70
2023/11/03 07:21:51;;;;;;;6.73;1.77;;;8.10;80.50;;;;;;4955034;28;20457;-70
2023/11/03 07:24:17;;;;;;;5.23;2.07;;;8.10;80.60;;;;;;4955498;28;20451;-72
2023/11/03 07:26:43;;;;;;;4.07;1.83;;;8.10;79.90;;;;;;4956266;28;20487;-72
2023/11/03 07:29:09;;;;;;;5.77;1.70;;;8.10;80.20;;;;;;4956024;28;20439;-71
2023/11/03 07:31:36;;;;;;;4.37;2.23;;;8.20;79.90;;;;;;4955725;28;20491;-73
2023/11/03 07:34:03;;;;;;;2.40;1.30;;;8.20;79.60;;;;;;4959752;28;20437;-71
2023/11/03 07:36:29;;;;;;;4.90;1.80;;;8.20;79.90;;;;;;4972156;28;20482;-70
2023/11/03 07:38:54;;;;;;;3.90;1.27;;;8.30;79.90;;;;;;4973317;28;20414;-71
2023/11/03 07:41:22;;;;;;;9.73;1.60;;;8.30;79.70;;;;;;4975296;28;20275;-73
2023/11/03 07:43:48;;;;;;;4.37;1.90;;;8.30;79.00;;;;;;4956897;28;20207;-71
2023/11/03 07:46:14;;;;;;;6.90;1.93;;;8.40;79.00;;;;;;4954981;28;20477;-70
2023/11/03 07:48:39;;;;;;;3.37;1.63;;;8.30;78.90;;;;;;4954689;28;20518;-71
2023/11/03 07:51:05;;;;;;;4.10;1.70;;;8.40;78.70;;;;;;4954213;28;20208;-70
2023/11/03 07:53:31;;;;;;;5.47;2.00;;;8.40;78.90;;;;;;4954688;28;20196;-70
2023/11/03 07:55:58;;;;;;;4.40;1.80;;;8.40;78.10;;;;;;4965447;28;20414;-71
2023/11/03 07:58:24;;;;;;;13.43;1.87;;;8.40;78.40;;;;;;4969380;28;20196;-67
2023/11/03 08:00:49;;;;;;;3.23;1.60;;;8.40;78.70;;;;;;4965393;28;20422;-71
2023/11/03 08:03:16;;;;;;;4.60;1.90;;;8.40;78.70;;;;;;4968531;28;20219;-70
2023/11/03 08:05:41;;;;;;;5.63;1.87;;;8.40;78.90;;;;;;4953309;28;20583;-71
2023/11/03 08:08:08;;;;;;;4.13;1.90;;;8.40;79.00;;;;;;4953906;28;20420;-70
2023/11/03 08:10:33;;;;;;;4.37;1.90;;;8.40;79.00;;;;;;4955052;28;20715;-70
2023/11/03 08:12:59;;;;;;;7.50;1.70;;;8.40;79.20;;;;;;4956295;28;20423;-68
2023/11/03 08:15:25;;;;;;;7.07;1.70;;;8.50;79.50;;;;;;4957038;28;20219;-70
2023/11/03 08:17:50;;;;;;;3.40;1.50;;;8.50;79.20;;;;;;4973601;28;20179;-71
2023/11/03 08:20:16;;;;;;;10.77;2.10;;;8.50;79.00;;;;;;4965606;28;20200;-70
2023/11/03 08:22:42;;;;;;;3.20;1.60;;;8.50;78.70;;;;;;4954952;28;20207;-70
2023/11/03 08:25:08;;;;;;;3.17;1.30;;;8.50;78.60;;;;;;4956260;28;20709;-69
2023/11/03 08:27:34;;;;;;;6.23;1.70;;;8.50;78.40;;;;;;4956495;28;20415;-71
2023/11/03 08:30:01;;;;;;;3.70;1.67;;;8.50;78.10;;;;;;4956438;28;20470;-71
2023/11/03 08:32:27;;;;;;;4.67;1.67;;;8.50;78.10;;;;;;4956449;28;20446;-70
2023/11/03 08:34:52;;;;;;;2.30;1.43;;;8.50;78.40;;;;;;4967009;28;20617;-70
2023/11/03 08:37:18;;;;;;;3.20;1.10;;;8.50;78.30;;;;;;4975421;28;20858;-70
2023/11/03 08:39:44;;;;;;;4.23;1.70;;;8.50;78.60;;;;;;4975239;28;20187;-70
2023/11/03 08:42:09;;;;;;;9.87;2.27;;;8.50;78.60;;;;;;4971397;28;20660;-71
2023/11/03 08:44:36;;;;;;;5.67;3.20;;;8.60;78.40;;;;;;4955665;28;20199;-71
2023/11/03 08:47:02;;;;;;;3.43;1.50;;;8.60;78.00;;;;;;4957112;28;20190;-72
2023/11/03 08:49:30;;;;;;;3.20;1.50;;;8.60;78.10;;;;;;4958855;28;20411;-71
2023/11/03 08:51:55;;;;;;;3.40;1.63;;;8.80;78.00;;;;;;4958574;28;20836;-69
2023/11/03 08:54:21;;;;;;;5.13;1.50;;;8.80;76.80;;;;;;4958835;28;20570;-72
2023/11/03 08:56:47;;;;;;;4.27;1.70;;;8.80;76.70;;;;;;4958670;28;20192;-71
2023/11/03 08:59:13;;;;;;;3.73;1.53;;;8.90;77.00;;;;;;4957970;28;20194;-70
2023/11/03 09:01:43;;;;;;;3.20;1.30;;;8.90;76.80;;;;;;4958716;28;20424;-71
2023/11/03 09:04:09;;;;;;;3.27;1.87;;;8.90;76.70;;;;;;4959118;28;20220;-71
2023/11/03 09:06:36;;;;;;;2.60;1.73;;;9.00;76.80;;;;;;4959325;28;20432;-71
2023/11/03 09:09:02;;;;;;;4.03;1.63;;;9.00;76.70;;;;;;4960648;28;20928;-73
2023/11/03 09:11:28;;;;;;;2.93;1.37;;;8.90;76.50;;;;;;4961137;28;20491;-72
2023/11/03 09:13:54;;;;;;;3.50;1.60;;;9.00;76.70;;;;;;4961249;28;20493;-71
2023/11/03 09:16:21;;;;;;;4.10;1.50;;;9.10;75.90;;;;;;4960297;28;20199;-71
2023/11/03 09:18:50;;;;;;;4.00;1.30;;;9.20;76.10;;;;;;4956323;28;20518;-71
2023/11/03 09:21:16;;;;;;;3.93;1.67;;;9.20;75.90;;;;;;4954743;28;20458;-72
2023/11/03 09:23:42;;;;;;;2.40;1.40;;;9.10;75.80;;;;;;4956241;28;20530;-71
2023/11/03 09:26:09;;;;;;;1.70;1.30;;;9.10;76.20;;;;;;4955593;28;20192;-71
2023/11/03 09:28:35;;;;;;;2.93;1.43;;;9.00;76.10;;;;;;4955791;28;20530;-70
2023/11/03 09:31:02;;;;;;;5.93;1.80;;;9.00;76.50;;;;;;4955718;28;20569;-71
2023/11/03 09:33:28;;;;;;;3.57;1.33;;;9.10;76.50;;;;;;4956178;28;20224;-69
2023/11/03 09:35:54;;;;;;;5.07;1.47;;;9.10;76.50;;;;;;4975607;28;20473;-72
2023/11/03 09:38:20;;;;;;;6.80;2.13;;;9.20;76.70;;;;;;4975412;28;20427;-70
2023/11/03 09:40:47;;;;;;;2.00;1.30;;;9.10;75.90;;;;;;4974956;28;20461;-72
2023/11/03 09:43:13;;;;;;;4.00;1.53;;;9.10;75.90;;;;;;4961323;28;20449;-69
2023/11/03 09:45:42;;;;;;;4.67;2.00;;;9.10;76.20;;;;;;4955032;28;20988;-71
2023/11/03 09:48:08;;;;;;;3.70;1.50;;;9.20;75.90;;;;;;4968663;28;20426;-71
2023/11/03 09:50:37;;;;;;;4.83;1.43;;;9.20;76.20;;;;;;4966822;28;20459;-71
2023/11/03 09:53:11;;;;;;;2.23;1.20;;;9.30;75.90;;;;;;4954981;28;20432;-70
2023/11/03 09:55:37;;;;;;;3.40;1.43;;;9.30;75.90;;;;;;4955070;28;20423;-70
2023/11/03 09:58:06;;;;;;;8.33;1.63;;;9.30;75.50;;;;;;4955161;28;20455;-69
2023/11/03 10:00:32;;;;;;;4.43;1.30;;;9.30;75.80;;;;;;4954920;28;20542;-69
2023/11/03 10:02:58;;;;;;;3.00;1.70;;;9.50;75.10;;;;;;4954869;28;20444;-70
2023/11/03 10:05:26;;;;;;;2.63;1.50;;;9.40;74.80;;;;;;4955339;28;20465;-70
2023/11/03 10:08:00;;;;;;;5.50;1.30;;;9.40;75.10;;;;;;4957068;28;20435;-70
2023/11/03 10:10:28;;;;;;;3.00;1.67;;;9.40;74.80;;;;;;4956533;28;20459;-71
2023/11/03 10:12:53;;;;;;;5.13;1.10;;;9.50;74.90;;;;;;4956451;28;20419;-70
2023/11/03 10:15:20;;;;;;;3.30;1.20;;;9.40;74.60;;;;;;4955730;28;20434;-72
2023/11/03 10:17:47;;;;;;;10.37;1.43;;;9.40;74.90;;;;;;4955504;28;20196;-68
2023/11/03 10:20:14;;;;;;;5.73;1.43;;;9.40;74.80;;;;;;4955654;28;20570;-71
2023/11/03 10:22:39;;;;;;;2.13;1.10;;;9.40;75.10;;;;;;4956119;28;20443;-71
2023/11/03 10:25:08;;;;;;;3.33;1.27;;;9.50;74.90;;;;;;4970669;28;20514;-70
2023/11/03 10:27:35;;;;;;;2.53;1.20;;;9.60;74.30;;;;;;4955679;28;20183;-69
2023/11/03 10:30:05;;;;;;;2.43;1.10;;;9.70;74.20;;;;;;4955187;28;20475;-72
2023/11/03 10:32:32;;;;;;;5.30;1.50;;;9.80;74.00;;;;;;4956965;28;20450;-70
2023/11/03 10:35:01;;;;;;;2.93;1.13;;;10.00;73.70;;;;;;4969118;28;20966;-70
2023/11/03 10:37:31;;;;;;;2.60;1.10;;;10.10;72.70;;;;;;4975098;28;20450;-70
2023/11/03 10:39:56;;;;;;;2.60;1.10;;;10.20;72.10;;;;;;4974976;28;20435;-71
2023/11/03 10:42:25;;;;;;;2.70;1.60;;;10.40;72.10;;;;;;4968376;28;20542;-72
2023/11/03 10:45:03;;;;;;;1.60;1.00;;;10.50;72.00;;;;;;4955688;28;20223;-69
2023/11/03 10:47:31;;;;;;;1.50;1.00;;;10.40;70.70;;;;;;4956297;28;20447;-72
2023/11/03 10:50:08;;;;;;;3.53;1.40;;;10.30;71.40;;;;;;4954258;28;20434;-72
2023/11/03 10:52:46;;;;;;;2.63;1.13;;;10.40;71.70;;;;;;4954701;28;20447;-71
2023/11/03 10:55:25;;;;;;;2.13;1.10;;;10.40;71.30;;;;;;4954118;28;20545;-72
2023/11/03 10:57:57;;;;;;;1.47;0.90;;;10.20;71.00;;;;;;4955875;28;20451;-73
2023/11/03 11:00:34;;;;;;;1.73;1.03;;;10.00;71.70;;;;;;4955411;28;20431;-71
2023/11/03 11:03:36;;;;;;;1.20;1.00;;;10.00;71.30;;;;;;4954464;28;20435;-71
2023/11/03 11:06:08;;;;;;;7.03;1.20;;;10.00;71.70;;;;;;4954194;28;20450;-72
2023/11/03 11:08:35;;;;;;;2.90;0.97;;;10.00;71.10;;;;;;4954909;28;20815;-71
2023/11/03 11:11:10;;;;;;;2.40;1.20;;;10.00;71.40;;;;;;4954472;28;20463;-71
2023/11/03 11:13:41;;;;;;;3.50;1.40;;;10.00;71.30;;;;;;4954918;28;20514;-69
2023/11/03 11:16:08;;;;;;;2.60;1.10;;;10.10;71.10;;;;;;4954477;28;20424;-69
2023/11/03 11:18:42;;;;;;;2.23;1.00;;;10.30;71.00;;;;;;4953631;28;20446;-70
2023/11/03 11:21:11;;;;;;;2.47;1.13;;;10.40;70.70;;;;;;4954304;28;20486;-72
2023/11/03 11:23:43;;;;;;;1.80;1.00;;;10.40;70.80;;;;;;4954260;28;20458;-71
2023/11/03 11:26:20;;;;;;;5.73;1.20;;;10.30;69.70;;;;;;4954164;28;20820;-71
2023/11/03 11:28:46;;;;;;;2.43;0.90;;;10.20;70.20;;;;;;4967412;28;20415;-71
2023/11/03 11:31:27;;;;;;;1.30;0.73;;;10.20;70.40;;;;;;4953934;28;20475;-70
2023/11/03 11:33:58;;;;;;;2.10;0.80;;;10.20;70.50;;;;;;4957823;28;20970;-70
2023/11/03 11:36:24;;;;;;;1.20;0.67;;;10.30;70.40;;;;;;4973984;28;20441;-71
2023/11/03 11:38:50;;;;;;;1.27;0.80;;;10.40;69.80;;;;;;4973897;28;20427;-72
2023/11/03 11:41:16;;;;;;;1.70;0.93;;;10.60;69.70;;;;;;4974439;28;20195;-72
2023/11/03 11:43:42;;;;;;;2.90;0.90;;;10.60;69.20;;;;;;4957366;28;20734;-70
2023/11/03 11:46:09;;;;;;;1.30;0.93;;;10.40;69.20;;;;;;4957870;28;20423;-70
2023/11/03 11:48:36;;;;;;;2.37;0.83;;;10.30;70.10;;;;;;4961672;28;21125;-69
2023/11/03 11:51:03;;;;;;;1.57;0.90;;;10.30;69.80;;;;;;4966266;28;20470;-72
2023/11/03 11:53:29;;;;;;;1.67;0.80;;;10.30;69.90;;;;;;4957365;28;20451;-71
2023/11/03 11:55:54;;;;;;;2.50;1.47;;;10.40;69.50;;;;;;4958236;28;20939;-70
2023/11/03 11:58:20;;;;;;;2.13;0.90;;;10.50;69.20;;;;;;4957696;28;20250;-70
2023/11/03 12:00:46;;;;;;;3.63;1.00;;;10.50;69.20;;;;;;4957222;28;20210;-71
2023/11/03 12:03:12;;;;;;;2.40;1.07;;;10.40;69.10;;;;;;4958281;28;20538;-70
2023/11/03 12:05:38;;;;;;;1.00;0.63;;;10.40;69.10;;;;;;4958733;28;20196;-71
2023/11/03 12:08:03;;;;;;;1.57;0.70;;;10.50;69.40;;;;;;4959611;28;20419;-69
2023/11/03 12:10:33;;;;;;;1.20;0.70;;;10.60;69.10;;;;;;4959375;28;20573;-72
2023/11/03 12:12:59;;;;;;;1.43;0.90;;;10.50;68.90;;;;;;4956911;28;20195;-73
2023/11/03 12:15:25;;;;;;;1.00;0.60;;;10.50;69.20;;;;;;4955558;28;20482;-71
2023/11/03 12:17:50;;;;;;;1.67;0.90;;;10.60;69.50;;;;;;4956721;28;20481;-71
2023/11/03 12:20:16;;;;;;;3.57;1.17;;;10.60;69.10;;;;;;4956239;28;20664;-71
2023/11/03 12:22:42;;;;;;;5.90;0.80;;;10.60;69.20;;;;;;4956023;28;20202;-71
2023/11/03 12:25:08;;;;;;;2.90;0.80;;;10.50;68.90;;;;;;4956850;28;20451;-70
2023/11/03 12:27:35;;;;;;;2.07;0.80;;;10.40;68.60;;;;;;4957235;28;20270;-71
2023/11/03 12:30:04;;;;;;;1.00;0.70;;;10.40;68.80;;;;;;4959149;28;20435;-71
2023/11/03 12:32:31;;;;;;;3.00;1.30;;;10.50;69.10;;;;;;4956683;28;20451;-71
2023/11/03 12:34:57;;;;;;;1.53;0.90;;;10.60;68.80;;;;;;4968068;28;20454;-72
2023/11/03 12:37:23;;;;;;;1.43;0.80;;;10.70;68.00;;;;;;4975627;28;20576;-71
2023/11/03 12:39:54;;;;;;;1.73;0.83;;;10.80;67.50;;;;;;4976410;28;20425;-71
2023/11/03 12:42:23;;;;;;;2.23;0.90;;;10.60;67.60;;;;;;4972613;28;20489;-72
2023/11/03 12:44:51;;;;;;;3.43;1.20;;;10.60;67.70;;;;;;4956204;28;21131;-72
2023/11/03 12:47:44;;;;;;;1.50;0.80;;;10.70;68.00;;;;;;4956150;28;20884;-72
2023/11/03 12:50:24;;;;;;;6.83;1.00;;;10.80;68.20;;;;;;4954619;28;20892;-71
2023/11/03 12:52:56;;;;;;;3.27;1.10;;;10.80;68.20;;;;;;4956018;28;21014;-71